Kittitas, Washington
Current Conditions -  °F | °C
As of 4:53 AM on Wednesday 22 Oct 2014 (Local Time) from KELN Reporting Station
Overcast Overcast  
Wind Chill: 52°   Ceiling: 7000
Heat Index: 52°   Visibility: 10mi
Dew Point: 42°   Wind: 0mph
Humidity: 69%   Direction: NA
Pressure: 29.82"   Gusts: NA
Location:  46.98°N, 120.42°W
Report Text: KELN 221153Z AUTO 00000KT 10SM OVC070 11/06 A2982 RMK AO2 SLP097 60001 70001 T01110056 10111 20067 56014
Loading
Personal Weather Stations






























Interactive Weather Map
Tropical Storm Tracking
New forecast layout! Learn more

10-Day Weather Forecast

Advertisements
Track Severe Weather on mobile